sensor_id;sensor_type;location;lat;lon;timestamp;P1;durP1;ratioP1;P2;durP2;ratioP2
14975;SDS011;7584;60.468;25.126;2023-12-29T00:01:29;1.33;;;0.90;;
14975;SDS011;7584;60.468;25.126;2023-12-29T00:03:55;3.37;;;1.17;;
14975;SDS011;7584;60.468;25.126;2023-12-29T00:06:20;5.40;;;1.13;;
14975;SDS011;7584;60.468;25.126;2023-12-29T00:08:45;6.13;;;1.37;;
14975;SDS011;7584;60.468;25.126;2023-12-29T00:11:19;1.60;;;1.03;;
14975;SDS011;7584;60.468;25.126;2023-12-29T00:13:44;2.37;;;1.27;;
14975;SDS011;7584;60.468;25.126;2023-12-29T00:16:09;2.63;;;0.90;;
14975;SDS011;7584;60.468;25.126;2023-12-29T00:18:36;2.53;;;1.13;;
14975;SDS011;7584;60.468;25.126;2023-12-29T00:21:02;3.47;;;1.30;;
14975;SDS011;7584;60.468;25.126;2023-12-29T00:23:27;2.10;;;0.93;;
14975;SDS011;7584;60.468;25.126;2023-12-29T00:25:52;2.37;;;1.03;;
14975;SDS011;7584;60.468;25.126;2023-12-29T00:28:18;4.33;;;1.30;;
14975;SDS011;7584;60.468;25.126;2023-12-29T00:30:43;4.73;;;1.20;;
14975;SDS011;7584;60.468;25.126;2023-12-29T00:33:08;3.17;;;1.07;;
14975;SDS011;7584;60.468;25.126;2023-12-29T00:35:36;4.23;;;1.13;;
14975;SDS011;7584;60.468;25.126;2023-12-29T00:38:01;2.50;;;1.10;;
14975;SDS011;7584;60.468;25.126;2023-12-29T00:40:27;2.83;;;1.20;;
14975;SDS011;7584;60.468;25.126;2023-12-29T00:42:52;3.93;;;1.20;;
14975;SDS011;7584;60.468;25.126;2023-12-29T00:45:17;2.60;;;1.20;;
14975;SDS011;7584;60.468;25.126;2023-12-29T00:47:43;1.60;;;1.03;;
14975;SDS011;7584;60.468;25.126;2023-12-29T00:50:08;2.00;;;1.10;;
14975;SDS011;7584;60.468;25.126;2023-12-29T00:52:34;4.37;;;1.23;;
14975;SDS011;7584;60.468;25.126;2023-12-29T00:55:01;1.50;;;1.00;;
14975;SDS011;7584;60.468;25.126;2023-12-29T00:57:26;1.97;;;1.10;;
14975;SDS011;7584;60.468;25.126;2023-12-29T00:59:52;2.90;;;1.40;;
14975;SDS011;7584;60.468;25.126;2023-12-29T01:02:17;4.70;;;1.63;;
14975;SDS011;7584;60.468;25.126;2023-12-29T01:04:42;4.40;;;1.27;;
14975;SDS011;7584;60.468;25.126;2023-12-29T01:07:07;1.40;;;0.90;;
14975;SDS011;7584;60.468;25.126;2023-12-29T01:09:36;5.17;;;1.30;;
14975;SDS011;7584;60.468;25.126;2023-12-29T01:12:03;3.77;;;1.27;;
14975;SDS011;7584;60.468;25.126;2023-12-29T01:14:28;1.57;;;1.03;;
14975;SDS011;7584;60.468;25.126;2023-12-29T01:16:53;2.17;;;1.23;;
14975;SDS011;7584;60.468;25.126;2023-12-29T01:19:19;3.53;;;1.23;;
14975;SDS011;7584;60.468;25.126;2023-12-29T01:21:44;2.80;;;1.40;;
14975;SDS011;7584;60.468;25.126;2023-12-29T01:24:09;5.50;;;1.07;;
14975;SDS011;7584;60.468;25.126;2023-12-29T01:26:38;2.00;;;1.10;;
14975;SDS011;7584;60.468;25.126;2023-12-29T01:29:04;2.93;;;1.20;;
14975;SDS011;7584;60.468;25.126;2023-12-29T01:31:29;1.37;;;1.10;;
14975;SDS011;7584;60.468;25.126;2023-12-29T01:33:55;3.97;;;1.27;;
14975;SDS011;7584;60.468;25.126;2023-12-29T01:36:20;2.67;;;1.20;;
14975;SDS011;7584;60.468;25.126;2023-12-29T01:38:46;3.40;;;1.73;;
14975;SDS011;7584;60.468;25.126;2023-12-29T01:41:11;2.57;;;1.20;;
14975;SDS011;7584;60.468;25.126;2023-12-29T01:44:02;3.87;;;1.30;;
14975;SDS011;7584;60.468;25.126;2023-12-29T01:46:22;4.33;;;1.60;;
14975;SDS011;7584;60.468;25.126;2023-12-29T01:48:48;2.93;;;1.33;;
14975;SDS011;7584;60.468;25.126;2023-12-29T01:51:14;2.70;;;1.47;;
14975;SDS011;7584;60.468;25.126;2023-12-29T01:53:39;5.20;;;1.50;;
14975;SDS011;7584;60.468;25.126;2023-12-29T01:56:05;1.90;;;1.50;;
14975;SDS011;7584;60.468;25.126;2023-12-29T01:58:30;2.83;;;1.53;;
14975;SDS011;7584;60.468;25.126;2023-12-29T02:00:55;2.60;;;1.83;;
14975;SDS011;7584;60.468;25.126;2023-12-29T02:03:20;2.27;;;1.80;;
14975;SDS011;7584;60.468;25.126;2023-12-29T02:05:46;3.50;;;2.50;;
14975;SDS011;7584;60.468;25.126;2023-12-29T02:08:11;4.07;;;2.10;;
14975;SDS011;7584;60.468;25.126;2023-12-29T02:10:37;2.80;;;1.77;;
14975;SDS011;7584;60.468;25.126;2023-12-29T02:13:02;3.67;;;1.53;;
14975;SDS011;7584;60.468;25.126;2023-12-29T02:15:28;3.50;;;1.87;;
14975;SDS011;7584;60.468;25.126;2023-12-29T02:18:02;3.30;;;1.63;;
14975;SDS011;7584;60.468;25.126;2023-12-29T02:20:28;3.00;;;1.70;;
14975;SDS011;7584;60.468;25.126;2023-12-29T02:22:54;3.40;;;1.40;;
14975;SDS011;7584;60.468;25.126;2023-12-29T02:25:20;2.67;;;1.60;;
14975;SDS011;7584;60.468;25.126;2023-12-29T02:30:29;2.37;;;1.40;;
14975;SDS011;7584;60.468;25.126;2023-12-29T02:33:00;1.77;;;1.43;;
14975;SDS011;7584;60.468;25.126;2023-12-29T02:35:27;2.33;;;1.67;;
14975;SDS011;7584;60.468;25.126;2023-12-29T02:37:53;1.87;;;1.43;;
14975;SDS011;7584;60.468;25.126;2023-12-29T02:40:18;5.13;;;1.57;;
14975;SDS011;7584;60.468;25.126;2023-12-29T02:42:47;3.07;;;1.53;;
14975;SDS011;7584;60.468;25.126;2023-12-29T02:45:16;1.43;;;1.27;;
14975;SDS011;7584;60.468;25.126;2023-12-29T02:47:42;1.73;;;1.20;;
14975;SDS011;7584;60.468;25.126;2023-12-29T02:50:08;2.80;;;1.43;;
14975;SDS011;7584;60.468;25.126;2023-12-29T02:52:33;2.67;;;1.37;;
14975;SDS011;7584;60.468;25.126;2023-12-29T02:54:58;4.47;;;1.40;;
14975;SDS011;7584;60.468;25.126;2023-12-29T02:57:24;4.03;;;1.40;;
14975;SDS011;7584;60.468;25.126;2023-12-29T02:59:49;1.33;;;1.23;;
14975;SDS011;7584;60.468;25.126;2023-12-29T03:02:14;3.27;;;1.60;;
14975;SDS011;7584;60.468;25.126;2023-12-29T03:04:39;3.20;;;1.50;;
14975;SDS011;7584;60.468;25.126;2023-12-29T03:07:06;2.07;;;1.43;;
14975;SDS011;7584;60.468;25.126;2023-12-29T03:09:31;2.07;;;1.60;;
14975;SDS011;7584;60.468;25.126;2023-12-29T03:11:57;1.57;;;1.20;;
14975;SDS011;7584;60.468;25.126;2023-12-29T03:14:22;3.33;;;1.17;;
14975;SDS011;7584;60.468;25.126;2023-12-29T03:16:47;1.33;;;0.90;;
14975;SDS011;7584;60.468;25.126;2023-12-29T03:19:12;1.80;;;0.97;;
14975;SDS011;7584;60.468;25.126;2023-12-29T03:21:38;3.20;;;1.00;;
14975;SDS011;7584;60.468;25.126;2023-12-29T03:24:03;2.67;;;1.13;;
14975;SDS011;7584;60.468;25.126;2023-12-29T03:26:28;2.73;;;1.47;;
14975;SDS011;7584;60.468;25.126;2023-12-29T03:28:54;2.87;;;1.40;;
14975;SDS011;7584;60.468;25.126;2023-12-29T03:31:19;2.40;;;1.20;;
14975;SDS011;7584;60.468;25.126;2023-12-29T03:33:45;4.63;;;1.33;;
14975;SDS011;7584;60.468;25.126;2023-12-29T03:36:10;1.50;;;1.00;;
14975;SDS011;7584;60.468;25.126;2023-12-29T03:38:35;2.83;;;1.40;;
14975;SDS011;7584;60.468;25.126;2023-12-29T03:41:01;2.17;;;1.57;;
14975;SDS011;7584;60.468;25.126;2023-12-29T03:43:27;1.50;;;1.30;;
14975;SDS011;7584;60.468;25.126;2023-12-29T03:45:52;1.60;;;1.10;;
14975;SDS011;7584;60.468;25.126;2023-12-29T03:48:17;2.73;;;1.17;;
14975;SDS011;7584;60.468;25.126;2023-12-29T03:50:42;1.17;;;1.03;;
14975;SDS011;7584;60.468;25.126;2023-12-29T03:53:08;2.70;;;1.40;;
14975;SDS011;7584;60.468;25.126;2023-12-29T03:55:33;2.00;;;1.30;;
14975;SDS011;7584;60.468;25.126;2023-12-29T03:57:58;2.60;;;1.53;;
14975;SDS011;7584;60.468;25.126;2023-12-29T04:00:25;2.50;;;1.30;;
14975;SDS011;7584;60.468;25.126;2023-12-29T04:02:50;2.67;;;1.80;;
14975;SDS011;7584;60.468;25.126;2023-12-29T04:05:15;3.97;;;1.87;;
14975;SDS011;7584;60.468;25.126;2023-12-29T04:07:40;2.70;;;1.73;;
14975;SDS011;7584;60.468;25.126;2023-12-29T04:10:06;2.77;;;1.23;;
14975;SDS011;7584;60.468;25.126;2023-12-29T04:12:32;3.83;;;2.13;;
14975;SDS011;7584;60.468;25.126;2023-12-29T04:14:57;3.17;;;2.00;;
14975;SDS011;7584;60.468;25.126;2023-12-29T04:17:23;2.53;;;1.40;;
14975;SDS011;7584;60.468;25.126;2023-12-29T04:19:48;3.73;;;2.03;;
14975;SDS011;7584;60.468;25.126;2023-12-29T04:22:13;2.63;;;1.90;;
14975;SDS011;7584;60.468;25.126;2023-12-29T04:24:38;2.93;;;2.00;;
14975;SDS011;7584;60.468;25.126;2023-12-29T04:27:04;2.37;;;1.90;;
14975;SDS011;7584;60.468;25.126;2023-12-29T04:29:29;2.37;;;1.67;;
14975;SDS011;7584;60.468;25.126;2023-12-29T04:31:55;3.00;;;1.90;;
14975;SDS011;7584;60.468;25.126;2023-12-29T04:34:20;5.90;;;4.30;;
14975;SDS011;7584;60.468;25.126;2023-12-29T04:36:45;4.63;;;1.70;;
14975;SDS011;7584;60.468;25.126;2023-12-29T04:39:11;2.80;;;1.77;;
14975;SDS011;7584;60.468;25.126;2023-12-29T04:41:36;3.07;;;1.77;;
14975;SDS011;7584;60.468;25.126;2023-12-29T04:44:01;3.47;;;2.30;;
14975;SDS011;7584;60.468;25.126;2023-12-29T04:46:26;3.40;;;2.03;;
14975;SDS011;7584;60.468;25.126;2023-12-29T04:48:52;3.17;;;2.10;;
14975;SDS011;7584;60.468;25.126;2023-12-29T04:51:18;2.83;;;2.20;;
14975;SDS011;7584;60.468;25.126;2023-12-29T04:53:43;1.67;;;1.40;;
14975;SDS011;7584;60.468;25.126;2023-12-29T04:56:08;2.13;;;1.70;;
14975;SDS011;7584;60.468;25.126;2023-12-29T04:58:34;2.93;;;1.73;;
14975;SDS011;7584;60.468;25.126;2023-12-29T05:00:59;2.40;;;1.57;;
14975;SDS011;7584;60.468;25.126;2023-12-29T05:03:24;3.90;;;1.60;;
14975;SDS011;7584;60.468;25.126;2023-12-29T05:05:50;3.03;;;1.50;;
14975;SDS011;7584;60.468;25.126;2023-12-29T05:08:15;3.23;;;1.50;;
14975;SDS011;7584;60.468;25.126;2023-12-29T05:10:40;4.63;;;1.90;;
14975;SDS011;7584;60.468;25.126;2023-12-29T05:13:06;2.83;;;1.70;;
14975;SDS011;7584;60.468;25.126;2023-12-29T05:15:31;3.97;;;2.07;;
14975;SDS011;7584;60.468;25.126;2023-12-29T05:17:56;4.43;;;2.20;;
14975;SDS011;7584;60.468;25.126;2023-12-29T05:20:21;3.03;;;2.10;;
14975;SDS011;7584;60.468;25.126;2023-12-29T05:22:47;3.73;;;2.30;;
14975;SDS011;7584;60.468;25.126;2023-12-29T05:25:12;4.33;;;1.97;;
14975;SDS011;7584;60.468;25.126;2023-12-29T05:27:37;4.50;;;1.97;;
14975;SDS011;7584;60.468;25.126;2023-12-29T05:30:03;5.43;;;2.50;;
14975;SDS011;7584;60.468;25.126;2023-12-29T05:32:28;4.97;;;2.40;;
14975;SDS011;7584;60.468;25.126;2023-12-29T05:34:53;4.17;;;2.70;;
14975;SDS011;7584;60.468;25.126;2023-12-29T05:37:19;4.13;;;2.30;;
14975;SDS011;7584;60.468;25.126;2023-12-29T05:39:44;4.63;;;2.27;;
14975;SDS011;7584;60.468;25.126;2023-12-29T05:42:09;5.87;;;2.63;;
14975;SDS011;7584;60.468;25.126;2023-12-29T05:44:38;4.73;;;2.53;;
14975;SDS011;7584;60.468;25.126;2023-12-29T05:47:04;6.27;;;2.80;;
14975;SDS011;7584;60.468;25.126;2023-12-29T05:49:29;4.27;;;2.57;;
14975;SDS011;7584;60.468;25.126;2023-12-29T05:51:55;8.17;;;2.83;;
14975;SDS011;7584;60.468;25.126;2023-12-29T05:54:20;6.10;;;3.13;;
14975;SDS011;7584;60.468;25.126;2023-12-29T05:56:45;4.73;;;2.37;;
14975;SDS011;7584;60.468;25.126;2023-12-29T05:59:11;4.23;;;2.43;;
14975;SDS011;7584;60.468;25.126;2023-12-29T06:01:36;5.00;;;2.70;;
14975;SDS011;7584;60.468;25.126;2023-12-29T06:04:01;5.63;;;3.20;;
14975;SDS011;7584;60.468;25.126;2023-12-29T06:06:27;5.00;;;2.60;;
14975;SDS011;7584;60.468;25.126;2023-12-29T06:08:52;6.27;;;2.47;;
14975;SDS011;7584;60.468;25.126;2023-12-29T06:11:17;8.47;;;2.77;;
14975;SDS011;7584;60.468;25.126;2023-12-29T06:13:43;3.50;;;2.20;;
14975;SDS011;7584;60.468;25.126;2023-12-29T06:16:08;6.83;;;2.87;;
14975;SDS011;7584;60.468;25.126;2023-12-29T06:18:33;6.33;;;3.20;;
14975;SDS011;7584;60.468;25.126;2023-12-29T06:20:59;5.20;;;3.07;;
14975;SDS011;7584;60.468;25.126;2023-12-29T06:23:26;3.03;;;2.57;;
14975;SDS011;7584;60.468;25.126;2023-12-29T06:25:51;7.50;;;3.30;;
14975;SDS011;7584;60.468;25.126;2023-12-29T06:28:17;3.93;;;2.63;;
14975;SDS011;7584;60.468;25.126;2023-12-29T06:30:42;4.37;;;2.80;;
14975;SDS011;7584;60.468;25.126;2023-12-29T06:33:07;5.13;;;2.60;;
14975;SDS011;7584;60.468;25.126;2023-12-29T06:35:33;3.63;;;2.30;;
14975;SDS011;7584;60.468;25.126;2023-12-29T06:37:58;5.00;;;2.77;;
14975;SDS011;7584;60.468;25.126;2023-12-29T06:40:23;5.70;;;2.90;;
14975;SDS011;7584;60.468;25.126;2023-12-29T06:42:49;6.03;;;2.90;;
14975;SDS011;7584;60.468;25.126;2023-12-29T06:45:14;6.00;;;2.80;;
14975;SDS011;7584;60.468;25.126;2023-12-29T06:47:39;5.17;;;2.80;;
14975;SDS011;7584;60.468;25.126;2023-12-29T06:50:05;4.00;;;2.80;;
14975;SDS011;7584;60.468;25.126;2023-12-29T06:52:32;2.97;;;2.33;;
14975;SDS011;7584;60.468;25.126;2023-12-29T06:54:59;6.50;;;2.93;;
14975;SDS011;7584;60.468;25.126;2023-12-29T06:57:25;6.37;;;2.90;;
14975;SDS011;7584;60.468;25.126;2023-12-29T06:59:50;4.00;;;2.50;;
14975;SDS011;7584;60.468;25.126;2023-12-29T07:02:15;4.00;;;2.80;;
14975;SDS011;7584;60.468;25.126;2023-12-29T07:04:41;3.50;;;2.70;;
14975;SDS011;7584;60.468;25.126;2023-12-29T07:07:07;3.43;;;2.67;;
14975;SDS011;7584;60.468;25.126;2023-12-29T07:09:33;2.67;;;2.40;;
14975;SDS011;7584;60.468;25.126;2023-12-29T07:11:58;4.80;;;2.80;;
14975;SDS011;7584;60.468;25.126;2023-12-29T07:14:23;5.20;;;2.97;;
14975;SDS011;7584;60.468;25.126;2023-12-29T07:16:49;8.13;;;3.63;;
14975;SDS011;7584;60.468;25.126;2023-12-29T07:19:14;5.60;;;2.87;;
14975;SDS011;7584;60.468;25.126;2023-12-29T07:21:39;4.70;;;2.97;;
14975;SDS011;7584;60.468;25.126;2023-12-29T07:24:05;3.87;;;2.77;;
14975;SDS011;7584;60.468;25.126;2023-12-29T07:26:32;3.70;;;2.63;;
14975;SDS011;7584;60.468;25.126;2023-12-29T07:28:57;4.77;;;2.37;;
14975;SDS011;7584;60.468;25.126;2023-12-29T07:31:22;5.10;;;2.93;;
14975;SDS011;7584;60.468;25.126;2023-12-29T07:33:48;4.60;;;2.70;;
14975;SDS011;7584;60.468;25.126;2023-12-29T07:36:14;6.10;;;2.80;;
14975;SDS011;7584;60.468;25.126;2023-12-29T07:38:39;5.47;;;2.57;;
14975;SDS011;7584;60.468;25.126;2023-12-29T07:41:04;3.53;;;2.40;;
14975;SDS011;7584;60.468;25.126;2023-12-29T07:43:31;3.73;;;2.50;;
14975;SDS011;7584;60.468;25.126;2023-12-29T07:45:56;4.57;;;2.67;;
14975;SDS011;7584;60.468;25.126;2023-12-29T07:48:21;3.60;;;2.67;;
14975;SDS011;7584;60.468;25.126;2023-12-29T07:50:46;4.37;;;2.37;;
14975;SDS011;7584;60.468;25.126;2023-12-29T07:53:12;3.90;;;2.40;;
14975;SDS011;7584;60.468;25.126;2023-12-29T07:55:37;5.27;;;2.40;;
14975;SDS011;7584;60.468;25.126;2023-12-29T07:58:04;4.80;;;2.13;;
14975;SDS011;7584;60.468;25.126;2023-12-29T08:00:30;2.67;;;2.10;;
14975;SDS011;7584;60.468;25.126;2023-12-29T08:02:55;4.40;;;3.00;;
14975;SDS011;7584;60.468;25.126;2023-12-29T08:05:20;5.83;;;2.63;;
14975;SDS011;7584;60.468;25.126;2023-12-29T08:07:46;4.33;;;2.63;;
14975;SDS011;7584;60.468;25.126;2023-12-29T08:10:12;4.57;;;2.47;;
14975;SDS011;7584;60.468;25.126;2023-12-29T08:12:37;8.10;;;2.87;;
14975;SDS011;7584;60.468;25.126;2023-12-29T08:15:03;4.40;;;2.53;;
14975;SDS011;7584;60.468;25.126;2023-12-29T08:17:28;3.43;;;2.43;;
14975;SDS011;7584;60.468;25.126;2023-12-29T08:19:54;6.07;;;2.63;;
14975;SDS011;7584;60.468;25.126;2023-12-29T08:22:20;3.90;;;2.40;;
14975;SDS011;7584;60.468;25.126;2023-12-29T08:24:45;3.27;;;1.90;;
14975;SDS011;7584;60.468;25.126;2023-12-29T08:27:13;4.70;;;2.27;;
14975;SDS011;7584;60.468;25.126;2023-12-29T08:29:39;3.63;;;2.23;;
14975;SDS011;7584;60.468;25.126;2023-12-29T08:32:04;3.87;;;2.37;;
14975;SDS011;7584;60.468;25.126;2023-12-29T08:34:30;2.87;;;2.13;;
14975;SDS011;7584;60.468;25.126;2023-12-29T08:36:55;3.60;;;2.30;;
14975;SDS011;7584;60.468;25.126;2023-12-29T08:39:21;4.43;;;2.23;;
14975;SDS011;7584;60.468;25.126;2023-12-29T08:41:46;3.60;;;2.40;;
14975;SDS011;7584;60.468;25.126;2023-12-29T08:44:12;4.70;;;2.33;;
14975;SDS011;7584;60.468;25.126;2023-12-29T08:46:37;3.17;;;2.13;;
14975;SDS011;7584;60.468;25.126;2023-12-29T08:49:02;2.67;;;1.90;;
14975;SDS011;7584;60.468;25.126;2023-12-29T08:51:27;3.20;;;2.03;;
14975;SDS011;7584;60.468;25.126;2023-12-29T08:53:53;2.67;;;2.13;;
14975;SDS011;7584;60.468;25.126;2023-12-29T08:56:19;3.20;;;1.93;;
14975;SDS011;7584;60.468;25.126;2023-12-29T08:58:44;3.00;;;2.10;;
14975;SDS011;7584;60.468;25.126;2023-12-29T09:01:09;2.73;;;1.87;;
14975;SDS011;7584;60.468;25.126;2023-12-29T09:03:35;3.40;;;2.37;;
14975;SDS011;7584;60.468;25.126;2023-12-29T09:06:00;3.50;;;2.00;;
14975;SDS011;7584;60.468;25.126;2023-12-29T09:08:26;3.23;;;1.50;;
14975;SDS011;7584;60.468;25.126;2023-12-29T09:10:52;2.77;;;2.00;;
14975;SDS011;7584;60.468;25.126;2023-12-29T09:13:17;2.53;;;1.83;;
14975;SDS011;7584;60.468;25.126;2023-12-29T09:15:43;4.47;;;1.90;;
14975;SDS011;7584;60.468;25.126;2023-12-29T09:18:08;2.67;;;1.77;;
14975;SDS011;7584;60.468;25.126;2023-12-29T09:20:35;6.17;;;2.20;;
14975;SDS011;7584;60.468;25.126;2023-12-29T09:23:00;2.60;;;1.80;;
14975;SDS011;7584;60.468;25.126;2023-12-29T09:25:25;3.97;;;1.87;;
14975;SDS011;7584;60.468;25.126;2023-12-29T09:27:51;2.37;;;1.87;;
14975;SDS011;7584;60.468;25.126;2023-12-29T09:30:17;4.30;;;2.40;;
14975;SDS011;7584;60.468;25.126;2023-12-29T09:32:42;4.33;;;1.90;;
14975;SDS011;7584;60.468;25.126;2023-12-29T09:35:08;2.43;;;1.83;;
14975;SDS011;7584;60.468;25.126;2023-12-29T09:37:33;2.00;;;1.70;;
14975;SDS011;7584;60.468;25.126;2023-12-29T09:39:58;2.50;;;1.70;;
14975;SDS011;7584;60.468;25.126;2023-12-29T09:42:23;3.00;;;1.60;;
14975;SDS011;7584;60.468;25.126;2023-12-29T09:44:50;2.17;;;1.70;;
14975;SDS011;7584;60.468;25.126;2023-12-29T09:47:17;2.03;;;1.40;;
14975;SDS011;7584;60.468;25.126;2023-12-29T09:49:45;2.23;;;1.37;;
14975;SDS011;7584;60.468;25.126;2023-12-29T09:52:11;1.77;;;1.60;;
14975;SDS011;7584;60.468;25.126;2023-12-29T09:54:37;3.50;;;1.97;;
14975;SDS011;7584;60.468;25.126;2023-12-29T09:57:06;2.23;;;1.70;;
14975;SDS011;7584;60.468;25.126;2023-12-29T09:59:35;2.37;;;1.37;;
14975;SDS011;7584;60.468;25.126;2023-12-29T10:02:09;2.20;;;1.70;;
14975;SDS011;7584;60.468;25.126;2023-12-29T10:04:37;3.37;;;1.60;;
14975;SDS011;7584;60.468;25.126;2023-12-29T10:07:03;5.13;;;2.10;;
14975;SDS011;7584;60.468;25.126;2023-12-29T10:09:31;3.27;;;2.00;;
14975;SDS011;7584;60.468;25.126;2023-12-29T10:11:58;3.50;;;1.90;;
14975;SDS011;7584;60.468;25.126;2023-12-29T10:14:24;3.43;;;1.87;;
14975;SDS011;7584;60.468;25.126;2023-12-29T10:16:53;3.87;;;2.10;;
14975;SDS011;7584;60.468;25.126;2023-12-29T10:22:00;2.57;;;1.93;;
14975;SDS011;7584;60.468;25.126;2023-12-29T10:24:29;2.87;;;2.03;;
14975;SDS011;7584;60.468;25.126;2023-12-29T10:26:54;3.53;;;2.20;;
14975;SDS011;7584;60.468;25.126;2023-12-29T10:29:20;4.23;;;2.80;;
14975;SDS011;7584;60.468;25.126;2023-12-29T10:31:46;3.17;;;2.20;;
14975;SDS011;7584;60.468;25.126;2023-12-29T10:34:17;3.77;;;2.00;;
14975;SDS011;7584;60.468;25.126;2023-12-29T10:36:46;2.77;;;2.30;;
14975;SDS011;7584;60.468;25.126;2023-12-29T10:39:12;2.77;;;2.30;;
14975;SDS011;7584;60.468;25.126;2023-12-29T10:41:38;3.80;;;2.63;;
14975;SDS011;7584;60.468;25.126;2023-12-29T10:44:06;2.90;;;2.40;;
14975;SDS011;7584;60.468;25.126;2023-12-29T10:46:31;5.10;;;2.97;;
14975;SDS011;7584;60.468;25.126;2023-12-29T10:49:06;5.23;;;2.50;;
14975;SDS011;7584;60.468;25.126;2023-12-29T10:51:32;4.53;;;2.73;;
14975;SDS011;7584;60.468;25.126;2023-12-29T10:53:58;6.13;;;3.20;;
14975;SDS011;7584;60.468;25.126;2023-12-29T10:56:23;7.90;;;3.43;;
14975;SDS011;7584;60.468;25.126;2023-12-29T10:59:01;5.13;;;3.20;;
14975;SDS011;7584;60.468;25.126;2023-12-29T11:01:28;4.93;;;3.20;;
14975;SDS011;7584;60.468;25.126;2023-12-29T11:04:00;5.80;;;3.63;;
14975;SDS011;7584;60.468;25.126;2023-12-29T11:06:26;6.33;;;3.67;;
14975;SDS011;7584;60.468;25.126;2023-12-29T11:08:51;5.83;;;3.37;;
14975;SDS011;7584;60.468;25.126;2023-12-29T11:11:17;7.37;;;4.60;;
14975;SDS011;7584;60.468;25.126;2023-12-29T11:13:42;5.73;;;3.50;;
14975;SDS011;7584;60.468;25.126;2023-12-29T11:16:07;7.13;;;4.63;;
14975;SDS011;7584;60.468;25.126;2023-12-29T11:18:33;6.30;;;3.70;;
14975;SDS011;7584;60.468;25.126;2023-12-29T11:20:59;5.53;;;4.17;;
14975;SDS011;7584;60.468;25.126;2023-12-29T11:23:24;6.30;;;3.83;;
14975;SDS011;7584;60.468;25.126;2023-12-29T11:25:50;7.43;;;4.70;;
14975;SDS011;7584;60.468;25.126;2023-12-29T11:28:15;7.70;;;4.67;;
14975;SDS011;7584;60.468;25.126;2023-12-29T11:30:41;5.60;;;3.73;;
14975;SDS011;7584;60.468;25.126;2023-12-29T11:33:14;5.90;;;4.40;;
14975;SDS011;7584;60.468;25.126;2023-12-29T11:38:15;8.97;;;5.10;;
14975;SDS011;7584;60.468;25.126;2023-12-29T11:40:48;6.40;;;4.53;;
14975;SDS011;7584;60.468;25.126;2023-12-29T11:43:16;8.97;;;5.13;;
14975;SDS011;7584;60.468;25.126;2023-12-29T11:45:42;7.73;;;5.00;;
14975;SDS011;7584;60.468;25.126;2023-12-29T11:48:08;8.47;;;5.50;;
14975;SDS011;7584;60.468;25.126;2023-12-29T11:50:34;9.20;;;5.10;;
14975;SDS011;7584;60.468;25.126;2023-12-29T11:53:00;8.63;;;4.77;;
14975;SDS011;7584;60.468;25.126;2023-12-29T11:55:29;8.83;;;5.47;;
14975;SDS011;7584;60.468;25.126;2023-12-29T11:57:55;10.63;;;6.43;;
14975;SDS011;7584;60.468;25.126;2023-12-29T12:00:21;8.10;;;4.97;;
14975;SDS011;7584;60.468;25.126;2023-12-29T12:03:13;8.33;;;5.40;;
14975;SDS011;7584;60.468;25.126;2023-12-29T12:05:44;8.77;;;5.03;;
14975;SDS011;7584;60.468;25.126;2023-12-29T12:08:10;9.57;;;5.90;;
14975;SDS011;7584;60.468;25.126;2023-12-29T12:10:35;9.33;;;4.90;;
14975;SDS011;7584;60.468;25.126;2023-12-29T12:13:03;8.10;;;5.20;;
14975;SDS011;7584;60.468;25.126;2023-12-29T12:20:25;8.37;;;5.80;;
14975;SDS011;7584;60.468;25.126;2023-12-29T12:22:57;8.03;;;5.17;;
14975;SDS011;7584;60.468;25.126;2023-12-29T12:25:23;8.63;;;4.90;;
14975;SDS011;7584;60.468;25.126;2023-12-29T12:27:50;7.27;;;4.87;;
14975;SDS011;7584;60.468;25.126;2023-12-29T12:30:20;7.77;;;4.67;;
14975;SDS011;7584;60.468;25.126;2023-12-29T12:32:45;7.53;;;5.50;;
14975;SDS011;7584;60.468;25.126;2023-12-29T12:35:14;6.50;;;4.40;;
14975;SDS011;7584;60.468;25.126;2023-12-29T12:37:43;6.23;;;4.50;;
14975;SDS011;7584;60.468;25.126;2023-12-29T12:40:08;7.70;;;4.77;;
14975;SDS011;7584;60.468;25.126;2023-12-29T12:42:38;7.73;;;4.70;;
14975;SDS011;7584;60.468;25.126;2023-12-29T12:45:04;6.93;;;5.10;;
14975;SDS011;7584;60.468;25.126;2023-12-29T12:47:36;6.27;;;4.23;;
14975;SDS011;7584;60.468;25.126;2023-12-29T12:50:02;8.70;;;4.73;;
14975;SDS011;7584;60.468;25.126;2023-12-29T12:52:32;8.17;;;4.77;;
14975;SDS011;7584;60.468;25.126;2023-12-29T12:54:58;9.40;;;5.13;;
14975;SDS011;7584;60.468;25.126;2023-12-29T12:57:23;7.33;;;4.40;;
14975;SDS011;7584;60.468;25.126;2023-12-29T12:59:49;7.20;;;4.30;;
14975;SDS011;7584;60.468;25.126;2023-12-29T13:02:15;9.63;;;5.63;;
14975;SDS011;7584;60.468;25.126;2023-12-29T13:04:41;9.50;;;5.97;;
14975;SDS011;7584;60.468;25.126;2023-12-29T13:07:07;8.10;;;5.17;;
14975;SDS011;7584;60.468;25.126;2023-12-29T13:09:35;6.83;;;4.70;;
14975;SDS011;7584;60.468;25.126;2023-12-29T13:12:13;10.20;;;4.83;;
14975;SDS011;7584;60.468;25.126;2023-12-29T13:14:42;9.70;;;5.07;;
14975;SDS011;7584;60.468;25.126;2023-12-29T13:17:11;6.63;;;4.40;;
14975;SDS011;7584;60.468;25.126;2023-12-29T13:19:37;9.67;;;5.60;;
14975;SDS011;7584;60.468;25.126;2023-12-29T13:22:07;7.53;;;4.93;;
14975;SDS011;7584;60.468;25.126;2023-12-29T13:24:32;9.80;;;5.27;;
14975;SDS011;7584;60.468;25.126;2023-12-29T13:27:01;7.30;;;4.87;;
14975;SDS011;7584;60.468;25.126;2023-12-29T13:29:27;9.77;;;5.27;;
14975;SDS011;7584;60.468;25.126;2023-12-29T13:31:54;9.60;;;5.17;;
14975;SDS011;7584;60.468;25.126;2023-12-29T13:34:21;8.17;;;5.10;;
14975;SDS011;7584;60.468;25.126;2023-12-29T13:36:53;10.50;;;5.43;;
14975;SDS011;7584;60.468;25.126;2023-12-29T13:41:47;8.63;;;5.63;;
14975;SDS011;7584;60.468;25.126;2023-12-29T13:44:13;10.70;;;6.43;;
14975;SDS011;7584;60.468;25.126;2023-12-29T13:46:39;10.70;;;5.80;;
14975;SDS011;7584;60.468;25.126;2023-12-29T13:49:04;10.10;;;5.97;;
14975;SDS011;7584;60.468;25.126;2023-12-29T13:51:31;9.50;;;6.17;;
14975;SDS011;7584;60.468;25.126;2023-12-29T13:53:59;9.43;;;6.33;;
14975;SDS011;7584;60.468;25.126;2023-12-29T13:56:24;11.73;;;5.60;;
14975;SDS011;7584;60.468;25.126;2023-12-29T13:58:53;12.73;;;6.40;;
14975;SDS011;7584;60.468;25.126;2023-12-29T14:01:18;12.27;;;7.13;;
14975;SDS011;7584;60.468;25.126;2023-12-29T14:03:50;13.23;;;8.23;;
14975;SDS011;7584;60.468;25.126;2023-12-29T14:06:20;10.60;;;6.70;;
14975;SDS011;7584;60.468;25.126;2023-12-29T14:08:46;12.77;;;6.63;;
14975;SDS011;7584;60.468;25.126;2023-12-29T14:11:11;12.30;;;7.13;;
14975;SDS011;7584;60.468;25.126;2023-12-29T14:13:43;9.87;;;6.47;;
14975;SDS011;7584;60.468;25.126;2023-12-29T14:16:08;10.63;;;7.03;;
14975;SDS011;7584;60.468;25.126;2023-12-29T14:21:24;13.23;;;8.23;;
14975;SDS011;7584;60.468;25.126;2023-12-29T14:26:23;11.90;;;6.83;;
14975;SDS011;7584;60.468;25.126;2023-12-29T14:28:59;12.33;;;7.57;;
14975;SDS011;7584;60.468;25.126;2023-12-29T14:31:24;12.13;;;6.50;;
14975;SDS011;7584;60.468;25.126;2023-12-29T14:33:50;12.90;;;7.17;;
14975;SDS011;7584;60.468;25.126;2023-12-29T14:36:15;14.60;;;7.70;;
14975;SDS011;7584;60.468;25.126;2023-12-29T14:38:40;13.67;;;8.63;;
14975;SDS011;7584;60.468;25.126;2023-12-29T14:41:06;13.47;;;8.00;;
14975;SDS011;7584;60.468;25.126;2023-12-29T14:43:31;11.70;;;7.87;;
14975;SDS011;7584;60.468;25.126;2023-12-29T14:45:56;12.67;;;7.37;;
14975;SDS011;7584;60.468;25.126;2023-12-29T14:48:22;14.43;;;8.20;;
14975;SDS011;7584;60.468;25.126;2023-12-29T14:50:49;14.23;;;8.23;;
14975;SDS011;7584;60.468;25.126;2023-12-29T14:53:15;15.67;;;8.50;;
14975;SDS011;7584;60.468;25.126;2023-12-29T14:55:40;12.77;;;7.80;;
14975;SDS011;7584;60.468;25.126;2023-12-29T14:58:05;13.57;;;8.33;;
14975;SDS011;7584;60.468;25.126;2023-12-29T15:00:30;17.23;;;9.17;;